Terminal Aerodrome Forecast
Issued by NWS

Home | Current Version | Previous Version | Text Only | Print | Product List | Glossary On
Versions: 1 2 3 4 5 6 7 8 9 10 11 12 13 14 15 16 17 18 19 20 21 22
000
FTUS44 KOUN 292324
TAFGAG
TAF
KGAG 292324Z 3000/3024 05016G21KT P6SM SCT080 BKN150
      TEMPO 3000/3003 VRB40KT 2SM -TSRA BKN040CB
     FM300500 04007KT P6SM SCT020 BKN100 OVC250 PROB30 3009/3014 2SM
      -TSRA BKN030CB OVC080
     FM301400 07009KT P6SM BKN150 PROB30 3020/3024 4SM TSRA
      BKN040CB=

USA.gov is the U.S. government's official web portal to all federal, state and local government web resources and services.